Terminal Aerodrome Forecast
Issued by NWS Sterling, VA

Current Version | Previous Version | Text Only | Print | Product List | Glossary Off
Versions: 1 2 3 4 5 6 7 8 9 10 11 12 13 14 15 16 17 18 19

000
FTUS41 KLWX 260922 AAA
TAFIAD
TAF AMD
KIAD 260922Z 2609/2712 20003KT P6SM SCT250
     FM261800 20007KT P6SM BKN050
     FM270800 VRB03KT P6SM BKN090
     FM271100 VRB03KT P6SM SCT090=

USA.gov is the U.S. government's official web portal to all federal, state and local government web resources and services.